Terminal Aerodrome Forecast
Issued by NWS

Home | Current Version | Previous Version | Text Only | Print | Product List | Glossary On
Versions: 1 2 3 4 5 6 7 8 9 10 11 12 13 14 15 16 17 18 19 20 21 22 23
000
FTUS43 KDLH 210520
TAFHIB
TAF
KHIB 210520Z 2106/2206 16009G18KT P6SM BKN150 WS020/19045KT
     FM211100 17009KT P6SM VCSH OVC080
     FM211600 17011G19KT P6SM VCSH OVC015
     FM212100 16010G18KT 5SM -SHRA VCTS BKN008 OVC015CB
     FM220000 18010KT 5SM -SHRA BR OVC008
     FM220300 22005KT P6SM VCSH BKN040=

USA.gov is the U.S. government's official web portal to all federal, state and local government web resources and services.